sensor_id;sensor_type;location;lat;lon;timestamp;P1;durP1;ratioP1;P2;durP2;ratioP2
73331;SDS011;61560;33.718;73.040;2023-03-23T00:02:26;673.65;;;232.13;;
73331;SDS011;61560;33.718;73.040;2023-03-23T00:07:26;674.92;;;234.70;;
73331;SDS011;61560;33.718;73.040;2023-03-23T00:09:53;675.45;;;234.57;;
73331;SDS011;61560;33.718;73.040;2023-03-23T00:12:23;684.60;;;234.98;;
73331;SDS011;61560;33.718;73.040;2023-03-23T00:17:31;690.70;;;238.63;;
73331;SDS011;61560;33.718;73.040;2023-03-23T00:20:02;689.17;;;238.82;;
73331;SDS011;61560;33.718;73.040;2023-03-23T00:22:32;680.80;;;236.95;;
73331;SDS011;61560;33.718;73.040;2023-03-23T00:25:04;682.05;;;236.32;;
73331;SDS011;61560;33.718;73.040;2023-03-23T00:27:31;672.50;;;233.68;;
73331;SDS011;61560;33.718;73.040;2023-03-23T00:29:59;675.92;;;233.95;;
73331;SDS011;61560;33.718;73.040;2023-03-23T00:32:25;686.33;;;235.95;;
73331;SDS011;61560;33.718;73.040;2023-03-23T00:34:56;696.90;;;240.85;;
73331;SDS011;61560;33.718;73.040;2023-03-23T00:37:29;695.38;;;240.40;;
73331;SDS011;61560;33.718;73.040;2023-03-23T00:39:56;698.25;;;240.93;;
73331;SDS011;61560;33.718;73.040;2023-03-23T00:42:26;670.33;;;231.77;;
73331;SDS011;61560;33.718;73.040;2023-03-23T00:44:54;667.33;;;231.35;;
73331;SDS011;61560;33.718;73.040;2023-03-23T00:47:26;664.47;;;229.32;;
73331;SDS011;61560;33.718;73.040;2023-03-23T00:49:53;664.33;;;230.63;;
73331;SDS011;61560;33.718;73.040;2023-03-23T00:52:22;665.00;;;230.60;;
73331;SDS011;61560;33.718;73.040;2023-03-23T00:54:49;660.65;;;228.95;;
73331;SDS011;61560;33.718;73.040;2023-03-23T00:57:17;658.00;;;228.68;;
73331;SDS011;61560;33.718;73.040;2023-03-23T00:59:44;657.25;;;226.90;;
73331;SDS011;61560;33.718;73.040;2023-03-23T01:02:13;655.05;;;227.23;;
73331;SDS011;61560;33.718;73.040;2023-03-23T01:04:40;654.78;;;226.80;;
73331;SDS011;61560;33.718;73.040;2023-03-23T01:07:10;655.08;;;227.55;;
73331;SDS011;61560;33.718;73.040;2023-03-23T01:09:44;656.45;;;227.60;;
73331;SDS011;61560;33.718;73.040;2023-03-23T01:12:11;652.17;;;224.95;;
73331;SDS011;61560;33.718;73.040;2023-03-23T01:14:39;649.50;;;225.00;;
73331;SDS011;61560;33.718;73.040;2023-03-23T01:17:07;647.60;;;224.95;;
73331;SDS011;61560;33.718;73.040;2023-03-23T01:19:34;651.58;;;224.60;;
73331;SDS011;61560;33.718;73.040;2023-03-23T01:22:03;652.95;;;227.32;;
73331;SDS011;61560;33.718;73.040;2023-03-23T01:24:30;653.95;;;225.98;;
73331;SDS011;61560;33.718;73.040;2023-03-23T01:26:57;648.72;;;225.85;;
73331;SDS011;61560;33.718;73.040;2023-03-23T01:29:30;649.83;;;225.20;;
73331;SDS011;61560;33.718;73.040;2023-03-23T01:31:57;648.58;;;225.48;;
73331;SDS011;61560;33.718;73.040;2023-03-23T01:34:24;647.40;;;225.05;;
73331;SDS011;61560;33.718;73.040;2023-03-23T01:36:52;649.28;;;224.43;;
73331;SDS011;61560;33.718;73.040;2023-03-23T01:39:19;646.10;;;225.32;;
73331;SDS011;61560;33.718;73.040;2023-03-23T01:41:46;648.80;;;225.38;;
73331;SDS011;61560;33.718;73.040;2023-03-23T01:47:08;643.13;;;224.20;;
73331;SDS011;61560;33.718;73.040;2023-03-23T01:49:37;641.72;;;223.65;;
73331;SDS011;61560;33.718;73.040;2023-03-23T01:52:15;645.25;;;224.38;;
73331;SDS011;61560;33.718;73.040;2023-03-23T01:54:49;643.35;;;224.40;;
73331;SDS011;61560;33.718;73.040;2023-03-23T01:57:19;642.55;;;224.70;;
73331;SDS011;61560;33.718;73.040;2023-03-23T01:59:56;641.15;;;223.85;;
73331;SDS011;61560;33.718;73.040;2023-03-23T02:02:40;641.92;;;224.35;;
73331;SDS011;61560;33.718;73.040;2023-03-23T02:05:18;646.15;;;223.35;;
73331;SDS011;61560;33.718;73.040;2023-03-23T02:08:07;644.55;;;223.50;;
73331;SDS011;61560;33.718;73.040;2023-03-23T02:10:36;641.00;;;223.40;;
73331;SDS011;61560;33.718;73.040;2023-03-23T02:13:04;641.78;;;222.63;;
73331;SDS011;61560;33.718;73.040;2023-03-23T02:15:40;643.10;;;222.93;;
73331;SDS011;61560;33.718;73.040;2023-03-23T02:39:00;699.45;;;246.10;;
73331;SDS011;61560;33.718;73.040;2023-03-23T02:41:37;705.67;;;248.80;;
73331;SDS011;61560;33.718;73.040;2023-03-23T02:44:10;689.67;;;242.18;;
73331;SDS011;61560;33.718;73.040;2023-03-23T02:46:39;711.85;;;247.90;;
73331;SDS011;61560;33.718;73.040;2023-03-23T02:49:08;707.08;;;245.88;;
73331;SDS011;61560;33.718;73.040;2023-03-23T02:51:38;702.30;;;245.20;;
73331;SDS011;61560;33.718;73.040;2023-03-23T02:54:08;706.78;;;246.68;;
73331;SDS011;61560;33.718;73.040;2023-03-23T02:56:36;706.60;;;247.38;;
73331;SDS011;61560;33.718;73.040;2023-03-23T02:59:11;711.22;;;246.25;;
73331;SDS011;61560;33.718;73.040;2023-03-23T03:04:06;707.45;;;245.93;;
73331;SDS011;61560;33.718;73.040;2023-03-23T03:12:30;702.95;;;245.77;;
73331;SDS011;61560;33.718;73.040;2023-03-23T03:17:33;706.92;;;246.02;;
73331;SDS011;61560;33.718;73.040;2023-03-23T03:20:05;706.28;;;247.68;;
73331;SDS011;61560;33.718;73.040;2023-03-23T04:56:27;711.13;;;250.45;;
73331;SDS011;61560;33.718;73.040;2023-03-23T04:59:01;701.08;;;247.35;;
73331;SDS011;61560;33.718;73.040;2023-03-23T05:01:41;742.25;;;261.23;;
73331;SDS011;61560;33.718;73.040;2023-03-23T05:04:17;722.88;;;253.40;;
73331;SDS011;61560;33.718;73.040;2023-03-23T05:07:20;730.15;;;253.10;;
73331;SDS011;61560;33.718;73.040;2023-03-23T05:09:48;752.35;;;260.63;;
73331;SDS011;61560;33.718;73.040;2023-03-23T05:12:25;786.20;;;272.80;;
73331;SDS011;61560;33.718;73.040;2023-03-23T05:15:00;783.10;;;273.30;;
73331;SDS011;61560;33.718;73.040;2023-03-23T05:17:30;802.50;;;277.33;;
73331;SDS011;61560;33.718;73.040;2023-03-23T05:20:00;789.22;;;274.55;;
73331;SDS011;61560;33.718;73.040;2023-03-23T05:22:43;794.95;;;274.80;;
73331;SDS011;61560;33.718;73.040;2023-03-23T05:25:15;805.10;;;277.13;;
73331;SDS011;61560;33.718;73.040;2023-03-23T05:27:48;790.95;;;272.23;;
73331;SDS011;61560;33.718;73.040;2023-03-23T05:30:29;793.13;;;270.80;;
73331;SDS011;61560;33.718;73.040;2023-03-23T05:32:57;793.03;;;269.98;;
73331;SDS011;61560;33.718;73.040;2023-03-23T05:35:42;788.03;;;271.23;;
73331;SDS011;61560;33.718;73.040;2023-03-23T05:38:19;763.95;;;263.80;;
73331;SDS011;61560;33.718;73.040;2023-03-23T05:40:46;783.55;;;266.33;;
73331;SDS011;61560;33.718;73.040;2023-03-23T05:43:17;774.92;;;264.38;;
73331;SDS011;61560;33.718;73.040;2023-03-23T05:46:07;770.90;;;264.20;;
73331;SDS011;61560;33.718;73.040;2023-03-23T05:48:36;778.97;;;264.73;;
73331;SDS011;61560;33.718;73.040;2023-03-23T05:51:08;780.72;;;266.63;;
73331;SDS011;61560;33.718;73.040;2023-03-23T05:53:39;787.50;;;266.27;;
73331;SDS011;61560;33.718;73.040;2023-03-23T05:56:08;817.75;;;277.52;;
73331;SDS011;61560;33.718;73.040;2023-03-23T05:58:56;813.42;;;276.13;;
73331;SDS011;61560;33.718;73.040;2023-03-23T06:01:26;826.75;;;278.17;;
73331;SDS011;61560;33.718;73.040;2023-03-23T06:03:53;830.67;;;281.30;;
73331;SDS011;61560;33.718;73.040;2023-03-23T06:06:36;834.40;;;279.27;;
73331;SDS011;61560;33.718;73.040;2023-03-23T06:09:07;816.40;;;274.10;;
73331;SDS011;61560;33.718;73.040;2023-03-23T06:11:54;845.33;;;282.35;;
73331;SDS011;61560;33.718;73.040;2023-03-23T06:14:31;838.78;;;279.55;;
73331;SDS011;61560;33.718;73.040;2023-03-23T06:16:59;872.30;;;287.45;;
73331;SDS011;61560;33.718;73.040;2023-03-23T06:19:26;885.10;;;292.73;;
73331;SDS011;61560;33.718;73.040;2023-03-23T06:22:04;954.47;;;311.88;;
73331;SDS011;61560;33.718;73.040;2023-03-23T06:24:57;772.50;;;256.98;;
73331;SDS011;61560;33.718;73.040;2023-03-23T06:27:34;777.17;;;257.75;;
73331;SDS011;61560;33.718;73.040;2023-03-23T06:30:04;781.80;;;258.15;;
73331;SDS011;61560;33.718;73.040;2023-03-23T06:32:32;804.55;;;263.83;;
73331;SDS011;61560;33.718;73.040;2023-03-23T06:35:02;812.75;;;267.50;;
73331;SDS011;61560;33.718;73.040;2023-03-23T06:38:01;821.15;;;269.40;;
73331;SDS011;61560;33.718;73.040;2023-03-23T06:40:45;780.95;;;258.20;;
73331;SDS011;61560;33.718;73.040;2023-03-23T06:43:14;785.42;;;256.58;;
73331;SDS011;61560;33.718;73.040;2023-03-23T06:46:05;778.83;;;256.45;;
73331;SDS011;61560;33.718;73.040;2023-03-23T06:48:56;776.40;;;255.57;;
73331;SDS011;61560;33.718;73.040;2023-03-23T06:51:36;774.30;;;255.68;;
73331;SDS011;61560;33.718;73.040;2023-03-23T06:54:04;772.25;;;255.88;;
73331;SDS011;61560;33.718;73.040;2023-03-23T06:56:36;770.60;;;255.30;;
73331;SDS011;61560;33.718;73.040;2023-03-23T06:59:04;771.08;;;256.05;;
73331;SDS011;61560;33.718;73.040;2023-03-23T07:01:32;767.80;;;255.68;;
73331;SDS011;61560;33.718;73.040;2023-03-23T07:04:00;765.50;;;254.57;;
73331;SDS011;61560;33.718;73.040;2023-03-23T07:06:37;764.75;;;254.18;;
73331;SDS011;61560;33.718;73.040;2023-03-23T07:09:07;765.30;;;255.13;;
73331;SDS011;61560;33.718;73.040;2023-03-23T07:11:34;765.47;;;254.02;;
73331;SDS011;61560;33.718;73.040;2023-03-23T07:14:14;767.65;;;256.58;;
73331;SDS011;61560;33.718;73.040;2023-03-23T07:16:42;769.63;;;255.15;;
73331;SDS011;61560;33.718;73.040;2023-03-23T07:19:09;762.45;;;254.23;;
73331;SDS011;61560;33.718;73.040;2023-03-23T07:21:37;764.55;;;254.65;;
73331;SDS011;61560;33.718;73.040;2023-03-23T07:24:04;763.67;;;255.38;;
73331;SDS011;61560;33.718;73.040;2023-03-23T07:26:57;757.72;;;253.73;;
73331;SDS011;61560;33.718;73.040;2023-03-23T07:29:26;758.95;;;254.05;;
73331;SDS011;61560;33.718;73.040;2023-03-23T07:32:04;762.90;;;253.77;;
73331;SDS011;61560;33.718;73.040;2023-03-23T07:34:32;758.75;;;254.15;;
73331;SDS011;61560;33.718;73.040;2023-03-23T07:37:19;756.58;;;252.80;;
73331;SDS011;61560;33.718;73.040;2023-03-23T07:39:48;756.20;;;250.82;;
73331;SDS011;61560;33.718;73.040;2023-03-23T07:42:15;753.67;;;251.88;;
73331;SDS011;61560;33.718;73.040;2023-03-23T07:44:56;757.80;;;251.77;;
73331;SDS011;61560;33.718;73.040;2023-03-23T07:47:23;755.83;;;251.15;;
73331;SDS011;61560;33.718;73.040;2023-03-23T07:49:52;753.42;;;250.60;;
73331;SDS011;61560;33.718;73.040;2023-03-23T07:52:31;751.35;;;248.90;;
73331;SDS011;61560;33.718;73.040;2023-03-23T07:55:00;756.97;;;250.15;;
73331;SDS011;61560;33.718;73.040;2023-03-23T07:57:56;753.58;;;250.23;;
73331;SDS011;61560;33.718;73.040;2023-03-23T08:00:24;755.72;;;249.75;;
73331;SDS011;61560;33.718;73.040;2023-03-23T08:02:54;756.47;;;249.57;;
73331;SDS011;61560;33.718;73.040;2023-03-23T08:05:44;776.03;;;253.80;;
73331;SDS011;61560;33.718;73.040;2023-03-23T08:08:27;781.42;;;256.10;;
73331;SDS011;61560;33.718;73.040;2023-03-23T08:11:13;803.35;;;261.80;;
73331;SDS011;61560;33.718;73.040;2023-03-23T08:14:10;804.10;;;262.60;;
73331;SDS011;61560;33.718;73.040;2023-03-23T08:16:57;777.45;;;254.60;;
73331;SDS011;61560;33.718;73.040;2023-03-23T08:19:48;762.90;;;249.57;;
73331;SDS011;61560;33.718;73.040;2023-03-23T08:22:31;775.80;;;253.18;;
73331;SDS011;61560;33.718;73.040;2023-03-23T08:25:29;779.42;;;253.18;;
73331;SDS011;61560;33.718;73.040;2023-03-23T08:28:33;798.97;;;259.75;;
73331;SDS011;61560;33.718;73.040;2023-03-23T08:31:19;824.22;;;265.95;;
73331;SDS011;61560;33.718;73.040;2023-03-23T08:34:22;828.08;;;267.88;;
73331;SDS011;61560;33.718;73.040;2023-03-23T08:37:03;832.63;;;268.60;;
73331;SDS011;61560;33.718;73.040;2023-03-23T08:39:51;837.45;;;268.65;;
73331;SDS011;61560;33.718;73.040;2023-03-23T08:42:50;844.30;;;271.88;;
73331;SDS011;61560;33.718;73.040;2023-03-23T08:45:36;847.78;;;272.88;;
73331;SDS011;61560;33.718;73.040;2023-03-23T08:48:15;842.17;;;270.27;;
73331;SDS011;61560;33.718;73.040;2023-03-23T08:51:09;838.55;;;270.45;;
73331;SDS011;61560;33.718;73.040;2023-03-23T08:53:38;832.13;;;268.95;;
73331;SDS011;61560;33.718;73.040;2023-03-23T08:56:25;831.35;;;268.13;;
73331;SDS011;61560;33.718;73.040;2023-03-23T08:59:12;830.38;;;268.00;;
73331;SDS011;61560;33.718;73.040;2023-03-23T09:01:54;827.65;;;267.58;;
73331;SDS011;61560;33.718;73.040;2023-03-23T09:04:28;826.05;;;267.65;;
73331;SDS011;61560;33.718;73.040;2023-03-23T09:07:11;828.55;;;267.42;;
73331;SDS011;61560;33.718;73.040;2023-03-23T09:12:10;826.10;;;268.15;;
73331;SDS011;61560;33.718;73.040;2023-03-23T09:14:38;825.78;;;268.02;;
73331;SDS011;61560;33.718;73.040;2023-03-23T09:17:06;822.75;;;266.83;;
73331;SDS011;61560;33.718;73.040;2023-03-23T09:19:34;825.05;;;266.15;;
73331;SDS011;61560;33.718;73.040;2023-03-23T09:22:01;824.40;;;267.10;;
73331;SDS011;61560;33.718;73.040;2023-03-23T09:24:30;821.63;;;267.88;;
73331;SDS011;61560;33.718;73.040;2023-03-23T09:26:58;823.95;;;266.88;;
73331;SDS011;61560;33.718;73.040;2023-03-23T09:29:25;824.88;;;266.63;;
73331;SDS011;61560;33.718;73.040;2023-03-23T09:31:53;818.53;;;266.33;;
73331;SDS011;61560;33.718;73.040;2023-03-23T09:34:21;820.03;;;265.95;;
73331;SDS011;61560;33.718;73.040;2023-03-23T09:36:49;822.03;;;267.23;;
73331;SDS011;61560;33.718;73.040;2023-03-23T09:39:16;818.35;;;266.38;;
73331;SDS011;61560;33.718;73.040;2023-03-23T09:41:54;820.88;;;267.05;;
73331;SDS011;61560;33.718;73.040;2023-03-23T09:44:38;821.85;;;266.98;;
73331;SDS011;61560;33.718;73.040;2023-03-23T09:50:09;818.00;;;266.05;;
73331;SDS011;61560;33.718;73.040;2023-03-23T09:52:52;816.85;;;264.85;;
73331;SDS011;61560;33.718;73.040;2023-03-23T09:55:23;820.40;;;266.38;;
73331;SDS011;61560;33.718;73.040;2023-03-23T10:01:07;817.75;;;264.42;;
73331;SDS011;61560;33.718;73.040;2023-03-23T10:03:40;812.00;;;263.45;;
73331;SDS011;61560;33.718;73.040;2023-03-23T10:06:10;810.45;;;263.27;;
73331;SDS011;61560;33.718;73.040;2023-03-23T10:08:43;817.03;;;262.83;;
73331;SDS011;61560;33.718;73.040;2023-03-23T10:16:21;810.42;;;261.67;;
73331;SDS011;61560;33.718;73.040;2023-03-23T10:18:54;810.08;;;260.45;;
73331;SDS011;61560;33.718;73.040;2023-03-23T10:21:23;811.58;;;262.05;;
73331;SDS011;61560;33.718;73.040;2023-03-23T10:34:32;808.15;;;261.73;;
73331;SDS011;61560;33.718;73.040;2023-03-23T10:37:36;813.17;;;261.92;;
73331;SDS011;61560;33.718;73.040;2023-03-23T10:40:15;809.80;;;261.05;;
73331;SDS011;61560;33.718;73.040;2023-03-23T10:42:50;815.42;;;263.50;;
73331;SDS011;61560;33.718;73.040;2023-03-23T10:45:36;809.47;;;262.35;;
73331;SDS011;61560;33.718;73.040;2023-03-23T10:50:38;810.15;;;261.92;;
73331;SDS011;61560;33.718;73.040;2023-03-23T10:53:13;810.28;;;261.13;;
73331;SDS011;61560;33.718;73.040;2023-03-23T10:55:47;811.38;;;262.20;;
73331;SDS011;61560;33.718;73.040;2023-03-23T10:58:33;807.38;;;261.83;;
73331;SDS011;61560;33.718;73.040;2023-03-23T11:01:03;806.63;;;262.35;;
73331;SDS011;61560;33.718;73.040;2023-03-23T11:03:44;807.22;;;261.35;;
73331;SDS011;61560;33.718;73.040;2023-03-23T11:06:21;811.35;;;263.05;;
73331;SDS011;61560;33.718;73.040;2023-03-23T11:09:16;811.00;;;263.15;;
73331;SDS011;61560;33.718;73.040;2023-03-23T11:11:51;808.50;;;262.70;;
73331;SDS011;61560;33.718;73.040;2023-03-23T11:16:55;807.83;;;261.27;;
73331;SDS011;61560;33.718;73.040;2023-03-23T11:19:25;806.33;;;262.27;;
73331;SDS011;61560;33.718;73.040;2023-03-23T11:21:55;808.35;;;263.23;;
73331;SDS011;61560;33.718;73.040;2023-03-23T11:24:45;806.60;;;262.92;;
73331;SDS011;61560;33.718;73.040;2023-03-23T11:27:18;808.95;;;263.40;;
73331;SDS011;61560;33.718;73.040;2023-03-23T11:29:55;808.65;;;263.35;;
73331;SDS011;61560;33.718;73.040;2023-03-23T11:32:43;805.10;;;262.90;;
73331;SDS011;61560;33.718;73.040;2023-03-23T11:35:30;807.13;;;262.42;;
73331;SDS011;61560;33.718;73.040;2023-03-23T11:37:58;808.20;;;261.70;;
73331;SDS011;61560;33.718;73.040;2023-03-23T11:40:26;808.15;;;263.75;;
73331;SDS011;61560;33.718;73.040;2023-03-23T11:43:07;806.80;;;262.65;;
73331;SDS011;61560;33.718;73.040;2023-03-23T11:45:50;808.10;;;262.83;;
73331;SDS011;61560;33.718;73.040;2023-03-23T11:48:38;806.63;;;262.83;;
73331;SDS011;61560;33.718;73.040;2023-03-23T11:54:04;807.00;;;262.38;;
73331;SDS011;61560;33.718;73.040;2023-03-23T11:56:56;807.10;;;262.55;;
73331;SDS011;61560;33.718;73.040;2023-03-23T11:59:28;805.83;;;262.08;;
73331;SDS011;61560;33.718;73.040;2023-03-23T12:10:40;807.38;;;263.20;;
73331;SDS011;61560;33.718;73.040;2023-03-23T12:13:15;804.88;;;263.40;;
73331;SDS011;61560;33.718;73.040;2023-03-23T12:18:52;807.72;;;264.92;;
73331;SDS011;61560;33.718;73.040;2023-03-23T12:24:27;804.45;;;261.52;;
73331;SDS011;61560;33.718;73.040;2023-03-23T12:30:19;800.83;;;261.55;;
73331;SDS011;61560;33.718;73.040;2023-03-23T12:38:47;798.55;;;260.58;;
73331;SDS011;61560;33.718;73.040;2023-03-23T12:44:10;793.65;;;260.60;;
73331;SDS011;61560;33.718;73.040;2023-03-23T12:46:47;789.08;;;257.77;;
73331;SDS011;61560;33.718;73.040;2023-03-23T12:49:20;781.45;;;256.17;;
73331;SDS011;61560;33.718;73.040;2023-03-23T12:55:01;769.63;;;253.82;;
73331;SDS011;61560;33.718;73.040;2023-03-23T13:00:12;761.65;;;250.63;;
73331;SDS011;61560;33.718;73.040;2023-03-23T13:03:02;769.03;;;252.77;;
73331;SDS011;61560;33.718;73.040;2023-03-23T13:05:51;760.17;;;251.35;;
73331;SDS011;61560;33.718;73.040;2023-03-23T13:08:29;763.17;;;252.23;;
73331;SDS011;61560;33.718;73.040;2023-03-23T13:11:01;769.58;;;253.25;;
73331;SDS011;61560;33.718;73.040;2023-03-23T13:13:54;775.72;;;256.67;;
73331;SDS011;61560;33.718;73.040;2023-03-23T13:16:41;778.05;;;257.30;;
73331;SDS011;61560;33.718;73.040;2023-03-23T13:19:20;785.33;;;260.75;;
73331;SDS011;61560;33.718;73.040;2023-03-23T13:22:13;789.30;;;261.35;;
73331;SDS011;61560;33.718;73.040;2023-03-23T13:24:53;792.33;;;261.00;;
73331;SDS011;61560;33.718;73.040;2023-03-23T13:27:24;786.90;;;260.95;;
73331;SDS011;61560;33.718;73.040;2023-03-23T13:32:33;843.38;;;277.77;;
73331;SDS011;61560;33.718;73.040;2023-03-23T13:35:03;840.28;;;277.92;;
73331;SDS011;61560;33.718;73.040;2023-03-23T13:37:41;844.15;;;278.88;;
73331;SDS011;61560;33.718;73.040;2023-03-23T13:40:20;846.83;;;277.88;;
73331;SDS011;61560;33.718;73.040;2023-03-23T13:42:56;845.90;;;276.92;;
73331;SDS011;61560;33.718;73.040;2023-03-23T13:48:04;846.45;;;280.35;;
73331;SDS011;61560;33.718;73.040;2023-03-23T13:53:25;838.05;;;277.25;;
73331;SDS011;61560;33.718;73.040;2023-03-23T13:56:19;833.25;;;274.98;;
73331;SDS011;61560;33.718;73.040;2023-03-23T13:58:50;835.83;;;276.67;;
73331;SDS011;61560;33.718;73.040;2023-03-23T14:01:32;832.00;;;275.45;;
73331;SDS011;61560;33.718;73.040;2023-03-23T14:04:03;827.35;;;273.90;;
73331;SDS011;61560;33.718;73.040;2023-03-23T14:06:34;835.95;;;275.20;;
73331;SDS011;61560;33.718;73.040;2023-03-23T14:09:28;840.72;;;276.00;;
73331;SDS011;61560;33.718;73.040;2023-03-23T14:12:02;841.47;;;279.20;;
73331;SDS011;61560;33.718;73.040;2023-03-23T14:14:44;854.20;;;281.77;;
73331;SDS011;61560;33.718;73.040;2023-03-23T14:17:25;864.35;;;286.75;;
73331;SDS011;61560;33.718;73.040;2023-03-23T14:19:55;874.55;;;289.40;;
73331;SDS011;61560;33.718;73.040;2023-03-23T14:22:35;881.13;;;291.10;;
73331;SDS011;61560;33.718;73.040;2023-03-23T14:25:14;874.92;;;290.77;;
73331;SDS011;61560;33.718;73.040;2023-03-23T14:27:43;877.78;;;291.75;;
73331;SDS011;61560;33.718;73.040;2023-03-23T14:30:14;879.85;;;291.48;;
73331;SDS011;61560;33.718;73.040;2023-03-23T14:32:47;895.60;;;294.35;;
73331;SDS011;61560;33.718;73.040;2023-03-23T14:37:53;913.25;;;302.30;;
73331;SDS011;61560;33.718;73.040;2023-03-23T14:40:21;921.53;;;303.15;;
73331;SDS011;61560;33.718;73.040;2023-03-23T14:42:50;918.67;;;303.63;;
73331;SDS011;61560;33.718;73.040;2023-03-23T14:45:21;913.13;;;304.02;;
73331;SDS011;61560;33.718;73.040;2023-03-23T14:47:53;910.15;;;301.10;;
73331;SDS011;61560;33.718;73.040;2023-03-23T14:50:30;907.60;;;298.95;;
73331;SDS011;61560;33.718;73.040;2023-03-23T14:53:13;891.67;;;296.48;;
73331;SDS011;61560;33.718;73.040;2023-03-23T14:55:49;882.55;;;295.20;;
73331;SDS011;61560;33.718;73.040;2023-03-23T14:58:20;891.83;;;298.02;;
73331;SDS011;61560;33.718;73.040;2023-03-23T15:00:56;898.50;;;297.52;;
73331;SDS011;61560;33.718;73.040;2023-03-23T15:03:27;892.42;;;298.08;;
73331;SDS011;61560;33.718;73.040;2023-03-23T15:06:03;905.05;;;300.10;;
73331;SDS011;61560;33.718;73.040;2023-03-23T15:08:34;915.67;;;306.42;;
73331;SDS011;61560;33.718;73.040;2023-03-23T15:13:48;901.50;;;303.15;;
73331;SDS011;61560;33.718;73.040;2023-03-23T15:16:20;903.95;;;302.73;;
73331;SDS011;61560;33.718;73.040;2023-03-23T15:18:54;895.83;;;301.73;;
73331;SDS011;61560;33.718;73.040;2023-03-23T15:23:58;897.13;;;303.67;;
73331;SDS011;61560;33.718;73.040;2023-03-23T15:31:47;896.67;;;298.98;;
73331;SDS011;61560;33.718;73.040;2023-03-23T15:34:32;879.83;;;294.73;;
73331;SDS011;61560;33.718;73.040;2023-03-23T15:37:23;868.65;;;291.02;;
73331;SDS011;61560;33.718;73.040;2023-03-23T15:39:57;861.83;;;290.95;;
73331;SDS011;61560;33.718;73.040;2023-03-23T15:50:32;845.55;;;286.27;;
73331;SDS011;61560;33.718;73.040;2023-03-23T15:53:11;839.15;;;284.63;;
73331;SDS011;61560;33.718;73.040;2023-03-23T15:56:03;835.20;;;282.17;;
73331;SDS011;61560;33.718;73.040;2023-03-23T15:58:31;832.85;;;282.23;;
73331;SDS011;61560;33.718;73.040;2023-03-23T16:01:11;836.63;;;281.80;;
73331;SDS011;61560;33.718;73.040;2023-03-23T16:03:42;828.92;;;280.27;;
73331;SDS011;61560;33.718;73.040;2023-03-23T16:06:11;819.35;;;278.23;;
73331;SDS011;61560;33.718;73.040;2023-03-23T16:08:39;821.10;;;276.67;;
73331;SDS011;61560;33.718;73.040;2023-03-23T16:11:08;815.17;;;276.48;;
73331;SDS011;61560;33.718;73.040;2023-03-23T16:13:43;806.97;;;274.63;;
73331;SDS011;61560;33.718;73.040;2023-03-23T16:16:33;807.92;;;272.95;;
73331;SDS011;61560;33.718;73.040;2023-03-23T16:19:07;799.70;;;271.55;;
73331;SDS011;61560;33.718;73.040;2023-03-23T16:21:37;789.55;;;268.85;;
73331;SDS011;61560;33.718;73.040;2023-03-23T16:24:05;784.05;;;268.52;;
73331;SDS011;61560;33.718;73.040;2023-03-23T16:26:33;784.28;;;267.42;;
73331;SDS011;61560;33.718;73.040;2023-03-23T16:29:00;783.40;;;265.48;;
73331;SDS011;61560;33.718;73.040;2023-03-23T16:31:29;782.15;;;265.38;;
73331;SDS011;61560;33.718;73.040;2023-03-23T16:33:55;778.15;;;265.45;;
73331;SDS011;61560;33.718;73.040;2023-03-23T16:36:23;776.05;;;264.75;;
73331;SDS011;61560;33.718;73.040;2023-03-23T16:38:50;777.03;;;265.23;;
73331;SDS011;61560;33.718;73.040;2023-03-23T16:41:21;774.85;;;264.80;;
73331;SDS011;61560;33.718;73.040;2023-03-23T16:43:48;777.60;;;265.98;;
73331;SDS011;61560;33.718;73.040;2023-03-23T16:46:16;781.33;;;264.27;;
73331;SDS011;61560;33.718;73.040;2023-03-23T16:48:43;775.28;;;264.70;;
73331;SDS011;61560;33.718;73.040;2023-03-23T16:51:17;773.05;;;264.23;;
73331;SDS011;61560;33.718;73.040;2023-03-23T16:53:44;775.63;;;266.00;;
73331;SDS011;61560;33.718;73.040;2023-03-23T16:56:11;774.90;;;265.70;;
73331;SDS011;61560;33.718;73.040;2023-03-23T16:58:38;775.83;;;265.60;;
73331;SDS011;61560;33.718;73.040;2023-03-23T17:01:07;772.80;;;265.45;;
73331;SDS011;61560;33.718;73.040;2023-03-23T17:03:34;772.50;;;263.92;;
73331;SDS011;61560;33.718;73.040;2023-03-23T17:06:01;775.20;;;264.83;;
73331;SDS011;61560;33.718;73.040;2023-03-23T17:08:30;777.67;;;265.70;;
73331;SDS011;61560;33.718;73.040;2023-03-23T17:10:57;774.55;;;265.58;;
73331;SDS011;61560;33.718;73.040;2023-03-23T17:13:25;779.47;;;264.52;;
73331;SDS011;61560;33.718;73.040;2023-03-23T17:15:53;772.50;;;264.33;;
73331;SDS011;61560;33.718;73.040;2023-03-23T17:18:23;773.42;;;265.30;;
73331;SDS011;61560;33.718;73.040;2023-03-23T17:20:53;772.90;;;263.92;;
73331;SDS011;61560;33.718;73.040;2023-03-23T17:23:20;770.33;;;264.20;;
73331;SDS011;61560;33.718;73.040;2023-03-23T17:25:48;771.50;;;265.08;;
73331;SDS011;61560;33.718;73.040;2023-03-23T17:28:15;772.97;;;264.73;;
73331;SDS011;61560;33.718;73.040;2023-03-23T17:30:42;776.78;;;263.70;;
73331;SDS011;61560;33.718;73.040;2023-03-23T17:33:13;775.50;;;264.83;;
73331;SDS011;61560;33.718;73.040;2023-03-23T17:35:40;768.33;;;263.52;;
73331;SDS011;61560;33.718;73.040;2023-03-23T17:38:09;764.13;;;262.38;;
73331;SDS011;61560;33.718;73.040;2023-03-23T17:40:37;766.53;;;263.83;;
73331;SDS011;61560;33.718;73.040;2023-03-23T17:43:04;769.75;;;263.58;;
73331;SDS011;61560;33.718;73.040;2023-03-23T17:45:31;763.80;;;263.27;;
73331;SDS011;61560;33.718;73.040;2023-03-23T17:47:58;761.80;;;262.15;;
73331;SDS011;61560;33.718;73.040;2023-03-23T17:50:26;763.25;;;262.13;;
73331;SDS011;61560;33.718;73.040;2023-03-23T17:52:54;767.75;;;262.27;;
73331;SDS011;61560;33.718;73.040;2023-03-23T17:55:21;763.90;;;261.95;;
73331;SDS011;61560;33.718;73.040;2023-03-23T17:57:49;762.75;;;261.83;;
73331;SDS011;61560;33.718;73.040;2023-03-23T18:00:16;755.55;;;261.77;;
73331;SDS011;61560;33.718;73.040;2023-03-23T18:02:46;760.67;;;262.65;;
73331;SDS011;61560;33.718;73.040;2023-03-23T18:05:13;757.83;;;260.20;;
73331;SDS011;61560;33.718;73.040;2023-03-23T18:07:41;756.30;;;259.90;;
73331;SDS011;61560;33.718;73.040;2023-03-23T18:10:08;756.63;;;260.35;;
73331;SDS011;61560;33.718;73.040;2023-03-23T18:12:38;761.85;;;262.15;;